aviador You're here:

FAOR Decoded Metar

TAMBO INTL AIRPT in SOUTH AFRICA
Report Time2017-11-23 22:00:00
UTC Time2017-11-23 22:24:31
Flight Rules vfr VFR
Wind040° at 14 kt
W.Rank040° ranks 18
Current wind is above 040° avg. (7.8)
Visibility9999 m
Phenomena:N/A
Clouds:N/A
Expected CloudBase > 800 ft AGL from Temp-Dew spread
CeilingNone
Temp14°C (ISA +10)
Dew Point12°C (88% RH)
AAT9.6°C
QNH1023 hPa
Density Alt6,594 ft
Elevation5,550 ft
Report Wrong Elevation
Raw Report
METAR FAOR 232200Z 04014KT CAVOK 14/12 Q1023 NOSIG=

Extra information for FAOR:More info

Metar Taf Metar & Taf Last 4 Metars F.Rules Stats Wind Profile Meteogram Temp Stats Airport Information Weather charts Add Link Nearby VenuesMetar ALERT Operation Metar Decoded Social comments